createdAt,value
2023-05-09T00:00:57.988Z,68.75
2023-05-09T00:06:03.086Z,69.76
2023-05-09T00:11:06.626Z,69.34
2023-05-09T00:16:10.462Z,69.57
2023-05-09T00:21:15.519Z,69.63
2023-05-09T00:26:19.133Z,69.85
2023-05-09T00:31:23.820Z,69.40
2023-05-09T00:36:28.597Z,69.89
2023-05-09T00:41:31.999Z,70.16
2023-05-09T00:46:35.524Z,69.10
2023-05-09T00:51:42.190Z,69.88
2023-05-09T00:56:46.203Z,70.23
2023-05-09T01:01:49.680Z,69.50
2023-05-09T01:07:02.708Z,69.63
2023-05-09T01:12:14.784Z,70.25
2023-05-09T01:17:27.089Z,69.64
2023-05-09T01:22:36.038Z,69.25
2023-05-09T01:27:47.347Z,69.50
2023-05-09T01:32:54.974Z,69.68
2023-05-09T01:37:59.868Z,69.76
2023-05-09T01:43:08.363Z,70.42
2023-05-09T01:48:14.603Z,69.74
2023-05-09T01:53:18.699Z,69.70
2023-05-09T01:58:23.598Z,69.73
2023-05-09T02:03:28.791Z,69.29
2023-05-09T02:08:32.565Z,69.46
2023-05-09T02:13:38.328Z,69.03
2023-05-09T02:18:43.161Z,69.40
2023-05-09T02:23:46.731Z,69.76
2023-05-09T02:28:52.010Z,69.79
2023-05-09T02:33:57.889Z,69.39
2023-05-09T02:39:02.196Z,69.51
2023-05-09T02:44:06.301Z,69.50
2023-05-09T02:49:19.565Z,69.61
2023-05-09T02:54:30.622Z,70.00
2023-05-09T02:59:34.316Z,69.63
2023-05-09T03:04:41.178Z,70.04
2023-05-09T03:09:44.703Z,70.08
2023-05-09T03:14:48.705Z,70.25
2023-05-09T03:19:53.602Z,69.97
2023-05-09T03:24:57.556Z,69.60
2023-05-09T03:30:01.111Z,69.71
2023-05-09T03:35:06.613Z,69.31
2023-05-09T03:40:11.208Z,69.71
2023-05-09T03:45:25.028Z,69.27
2023-05-09T03:50:30.332Z,70.08
2023-05-09T03:55:35.413Z,68.41
2023-05-09T04:00:39.318Z,69.60
2023-05-09T04:05:50.145Z,68.58
2023-05-09T04:11:03.429Z,69.46
2023-05-09T04:16:07.285Z,69.47
2023-05-09T04:21:12.849Z,69.52
2023-05-09T04:26:18.262Z,69.52
2023-05-09T04:31:26.468Z,70.36
2023-05-09T04:36:31.851Z,70.17
2023-05-09T04:41:35.755Z,70.45
2023-05-09T04:46:39.516Z,70.63
2023-05-09T04:51:45.229Z,70.28
2023-05-09T04:56:50.603Z,70.75
2023-05-09T05:01:54.839Z,71.25
2023-05-09T05:06:59.859Z,71.49
2023-05-09T05:12:09.134Z,71.30
2023-05-09T05:17:13.804Z,71.64
2023-05-09T05:22:18.664Z,71.57
2023-05-09T05:27:23.669Z,71.55
2023-05-09T05:32:28.103Z,72.13
2023-05-09T05:37:33.275Z,71.76
2023-05-09T05:42:37.623Z,72.25
2023-05-09T05:47:41.372Z,71.69
2023-05-09T05:52:46.850Z,72.20
2023-05-09T05:57:52.327Z,72.01
2023-05-09T06:02:56.569Z,71.69
2023-05-09T06:08:11.450Z,72.48
2023-05-09T06:13:14.990Z,72.23
2023-05-09T06:18:23.802Z,71.80
2023-05-09T06:23:28.592Z,72.91
2023-05-09T06:28:32.088Z,72.44
2023-05-09T06:33:35.471Z,71.93
2023-05-09T06:38:40.849Z,71.98
2023-05-09T06:43:44.302Z,70.72
2023-05-09T06:48:48.142Z,70.85
2023-05-09T06:53:53.263Z,70.71
2023-05-09T06:58:56.804Z,70.79
2023-05-09T07:04:00.305Z,69.48
2023-05-09T07:09:05.412Z,70.61
2023-05-09T07:14:08.771Z,69.25
2023-05-09T07:19:12.539Z,68.45
2023-05-09T07:24:17.428Z,67.95
2023-05-09T07:29:20.872Z,67.33
2023-05-09T07:34:25.383Z,68.23
2023-05-09T07:39:30.288Z,67.30
2023-05-09T07:44:33.635Z,67.77
2023-05-09T07:49:37.236Z,66.63
2023-05-09T07:54:42.071Z,64.45
2023-05-09T07:59:45.533Z,65.98
2023-05-09T08:04:49.346Z,64.64
2023-05-09T08:09:54.143Z,64.94
2023-05-09T08:14:57.551Z,65.12
2023-05-09T08:20:01.141Z,63.88
2023-05-09T08:25:06.661Z,64.11
2023-05-09T08:30:11.018Z,63.48
2023-05-09T08:35:14.802Z,61.55
2023-05-09T08:40:20.121Z,62.01
2023-05-09T08:45:27.596Z,60.73
2023-05-09T08:50:31.618Z,61.71
2023-05-09T08:55:36.555Z,58.65
2023-05-09T09:00:42.381Z,58.21
2023-05-09T09:05:47.849Z,56.78
2023-05-09T09:10:53.167Z,56.91
2023-05-09T09:16:00.233Z,56.95
2023-05-09T09:21:08.134Z,57.51
2023-05-09T09:26:13.343Z,53.59
2023-05-09T09:31:24.347Z,56.87
2023-05-09T09:36:29.072Z,53.25
2023-05-09T09:41:35.203Z,54.68
2023-05-09T09:46:46.715Z,55.60
2023-05-09T09:51:54.877Z,54.74
2023-05-09T09:56:59.785Z,55.57
2023-05-09T10:02:07.646Z,53.83
2023-05-09T10:07:14.819Z,51.92
2023-05-09T10:12:23.494Z,54.07
2023-05-09T10:17:27.750Z,50.72
2023-05-09T10:22:33.404Z,49.82
2023-05-09T10:27:41.234Z,51.93
2023-05-09T10:32:50.603Z,51.70
2023-05-09T10:37:57.498Z,50.43
2023-05-09T10:43:02.893Z,49.26
2023-05-09T10:48:09.002Z,48.84
2023-05-09T10:53:14.511Z,49.85
2023-05-09T10:58:27.506Z,52.89
2023-05-09T11:03:54.596Z,53.14
2023-05-09T11:08:58.105Z,50.72
2023-05-09T11:14:03.212Z,50.88
2023-05-09T11:19:07.059Z,47.35
2023-05-09T11:24:17.963Z,50.67
2023-05-09T11:29:28.109Z,50.39
2023-05-09T11:34:31.592Z,47.30
2023-05-09T11:39:35.100Z,49.20
2023-05-09T11:44:41.141Z,48.57
2023-05-09T11:49:44.702Z,46.36
2023-05-09T11:54:48.643Z,46.73
2023-05-09T11:59:54.221Z,46.76
2023-05-09T12:04:57.800Z,46.73
2023-05-09T12:10:02.840Z,45.35
2023-05-09T12:15:10.903Z,46.54
2023-05-09T12:20:14.902Z,47.11
2023-05-09T12:25:18.503Z,45.34
2023-05-09T12:30:23.737Z,45.76
2023-05-09T12:35:27.184Z,45.61
2023-05-09T12:40:30.607Z,44.31
2023-05-09T12:45:35.484Z,44.39
2023-05-09T12:50:38.909Z,44.21
2023-05-09T12:55:42.387Z,46.29
2023-05-09T13:00:47.503Z,45.55
2023-05-09T13:05:58.896Z,46.04
2023-05-09T13:11:14.804Z,44.06
2023-05-09T13:16:20.095Z,42.39
2023-05-09T13:21:23.479Z,44.99
2023-05-09T13:26:28.356Z,42.42
2023-05-09T13:31:33.095Z,44.56
2023-05-09T13:36:36.515Z,42.37
2023-05-09T13:41:39.919Z,42.69
2023-05-09T13:46:44.791Z,42.42
2023-05-09T13:51:48.665Z,42.71
2023-05-09T13:56:52.882Z,43.55
2023-05-09T14:02:00.018Z,43.68
2023-05-09T14:07:04.893Z,40.71
2023-05-09T14:12:10.115Z,41.63
2023-05-09T14:17:15.060Z,41.90
2023-05-09T14:22:18.492Z,42.42
2023-05-09T14:27:21.945Z,43.47
2023-05-09T14:32:27.205Z,41.32
2023-05-09T14:37:30.614Z,41.70
2023-05-09T14:42:34.076Z,42.08
2023-05-09T14:47:38.978Z,43.66
2023-05-09T14:52:44.081Z,43.49
2023-05-09T14:57:47.623Z,45.66
2023-05-09T15:02:52.400Z,44.00
2023-05-09T15:07:55.870Z,45.23
2023-05-09T15:12:59.287Z,45.89
2023-05-09T15:18:04.122Z,43.55
2023-05-09T15:23:08.542Z,43.55
2023-05-09T15:28:12.173Z,42.95
2023-05-09T15:33:17.655Z,43.09
2023-05-09T15:38:21.154Z,43.25
2023-05-09T15:43:24.651Z,44.16
2023-05-09T15:48:31.826Z,44.07
2023-05-09T15:53:35.368Z,45.49
2023-05-09T15:58:39.111Z,45.68
2023-05-09T16:03:44.117Z,47.71
2023-05-09T16:08:47.688Z,47.50
2023-05-09T16:13:51.208Z,46.47
2023-05-09T16:18:56.130Z,47.20
2023-05-09T16:24:00.191Z,48.67
2023-05-09T16:29:03.698Z,49.06
2023-05-09T16:34:08.597Z,48.67
2023-05-09T16:39:11.986Z,49.33
2023-05-09T16:44:15.541Z,49.09
2023-05-09T16:49:20.399Z,49.22
2023-05-09T16:54:23.720Z,49.69
2023-05-09T16:59:27.249Z,49.15
2023-05-09T17:04:32.093Z,50.11
2023-05-09T17:09:43.660Z,49.56
2023-05-09T17:14:48.069Z,49.44
2023-05-09T17:19:55.870Z,48.93
2023-05-09T17:24:59.518Z,50.58
2023-05-09T17:30:04.091Z,52.00
2023-05-09T17:35:10.218Z,53.20
2023-05-09T17:40:15.709Z,55.27
2023-05-09T17:45:20.678Z,55.93
2023-05-09T17:50:25.672Z,60.09
2023-05-09T17:55:29.160Z,60.29
2023-05-09T18:00:32.635Z,61.99
2023-05-09T18:05:37.452Z,61.91
2023-05-09T18:10:41.478Z,62.46
2023-05-09T18:15:45.301Z,62.36
2023-05-09T18:20:51.458Z,62.27
2023-05-09T18:25:56.044Z,61.63
2023-05-09T18:31:01.400Z,60.65
2023-05-09T18:36:07.104Z,61.57
2023-05-09T18:41:11.983Z,62.34
2023-05-09T18:46:18.112Z,60.99
2023-05-09T18:51:23.148Z,62.49
2023-05-09T18:56:26.593Z,63.60
2023-05-09T19:01:30.262Z,61.77
2023-05-09T19:06:35.183Z,60.87
2023-05-09T19:11:38.676Z,60.70
2023-05-09T19:16:42.371Z,60.80
2023-05-09T19:21:49.041Z,62.09
2023-05-09T19:26:53.476Z,62.31
2023-05-09T19:31:58.267Z,62.55
2023-05-09T19:37:03.107Z,62.82
2023-05-09T19:42:06.539Z,63.27
2023-05-09T19:47:10.141Z,63.23
2023-05-09T19:52:15.018Z,63.80
2023-05-09T19:57:18.726Z,63.89
2023-05-09T20:02:22.285Z,64.22
2023-05-09T20:07:27.221Z,63.48
2023-05-09T20:12:30.761Z,64.02
2023-05-09T20:17:34.281Z,64.84
2023-05-09T20:22:40.788Z,64.79
2023-05-09T20:27:57.475Z,65.37
2023-05-09T20:33:01.296Z,65.29
2023-05-09T20:38:06.280Z,65.50
2023-05-09T20:43:09.811Z,65.84
2023-05-09T20:48:13.738Z,65.16
2023-05-09T20:53:22.421Z,64.79
2023-05-09T20:58:26.153Z,65.33
2023-05-09T21:03:29.787Z,64.93
2023-05-09T21:08:34.708Z,64.90
2023-05-09T21:13:38.103Z,65.09
2023-05-09T21:19:07.155Z,63.01
2023-05-09T21:24:12.011Z,64.64
2023-05-09T21:29:15.589Z,63.85
2023-05-09T21:34:21.217Z,64.33
2023-05-09T21:40:29.184Z,62.46
2023-05-09T21:45:46.544Z,64.80
2023-05-09T21:50:49.974Z,65.04
2023-05-09T21:55:54.801Z,64.37
2023-05-09T22:00:58.433Z,64.80
2023-05-09T22:06:01.804Z,64.65
2023-05-09T22:11:07.738Z,64.57
2023-05-09T22:16:11.728Z,64.88
2023-05-09T22:21:15.218Z,65.68
2023-05-09T22:26:20.175Z,64.94
2023-05-09T22:31:23.776Z,64.64
2023-05-09T22:36:27.404Z,64.81
2023-05-09T22:41:32.334Z,65.17
2023-05-09T22:46:35.838Z,65.54
2023-05-09T22:51:39.334Z,65.10
2023-05-09T22:56:44.396Z,65.86
2023-05-09T23:01:47.860Z,66.48
2023-05-09T23:06:51.267Z,66.91
2023-05-09T23:11:56.102Z,66.87
2023-05-09T23:16:59.559Z,66.88
2023-05-09T23:22:03.037Z,67.04
2023-05-09T23:27:07.870Z,67.06
2023-05-09T23:32:11.250Z,67.55
2023-05-09T23:37:14.682Z,67.59
2023-05-09T23:42:19.508Z,68.12
2023-05-09T23:47:22.987Z,69.12
2023-05-09T23:52:26.564Z,69.57
2023-05-09T23:57:33.497Z,69.36
